createdAt,value
2023-10-09T00:01:05.370Z,13.40
2023-10-09T00:03:32.940Z,13.40
2023-10-09T00:06:00.307Z,13.40
2023-10-09T00:08:33.285Z,13.40
2023-10-09T00:11:14.703Z,13.40
2023-10-09T00:13:51.796Z,13.50
2023-10-09T00:16:36.403Z,13.40
2023-10-09T00:19:25.154Z,13.40
2023-10-09T00:21:56.132Z,13.50
2023-10-09T00:24:25.773Z,13.50
2023-10-09T00:27:31.689Z,13.50
2023-10-09T00:29:59.043Z,13.50
2023-10-09T00:32:28.095Z,13.50
2023-10-09T00:35:00.369Z,13.50
2023-10-09T00:37:35.027Z,13.50
2023-10-09T00:40:13.622Z,13.50
2023-10-09T00:42:40.953Z,13.40
2023-10-09T00:45:17.366Z,13.40
2023-10-09T00:47:44.953Z,13.40
2023-10-09T00:50:17.630Z,13.40
2023-10-09T00:53:03.622Z,13.50
2023-10-09T00:55:45.830Z,13.40
2023-10-09T00:58:15.103Z,13.40
2023-10-09T01:00:46.163Z,13.40
2023-10-09T01:03:18.146Z,13.50
2023-10-09T01:05:59.142Z,13.50
2023-10-09T01:08:47.611Z,13.50
2023-10-09T01:11:24.543Z,13.50
2023-10-09T01:13:51.835Z,13.50
2023-10-09T01:16:24.460Z,13.50
2023-10-09T01:18:54.627Z,13.50
2023-10-09T01:21:28.664Z,13.50
2023-10-09T01:24:05.663Z,13.50
2023-10-09T01:26:41.426Z,13.50
2023-10-09T01:29:17.327Z,13.50
2023-10-09T01:31:54.726Z,13.50
2023-10-09T01:34:44.681Z,13.50
2023-10-09T01:37:31.925Z,13.50
2023-10-09T01:40:00.545Z,13.50
2023-10-09T01:42:30.937Z,13.50
2023-10-09T01:44:59.872Z,13.50
2023-10-09T01:47:32.797Z,13.50
2023-10-09T01:50:00.194Z,13.50
2023-10-09T01:52:29.172Z,13.50
2023-10-09T01:55:02.875Z,13.50
2023-10-09T01:57:31.320Z,13.50
2023-10-09T01:59:59.132Z,13.50
2023-10-09T02:02:34.946Z,13.50
2023-10-09T02:05:16.053Z,13.50
2023-10-09T02:07:52.644Z,13.50
2023-10-09T02:10:26.359Z,13.50
2023-10-09T02:13:18.091Z,13.50
2023-10-09T02:15:45.190Z,13.50
2023-10-09T02:18:23.230Z,13.50
2023-10-09T02:21:00.406Z,13.50
2023-10-09T02:23:32.032Z,13.50
2023-10-09T02:26:02.771Z,13.60
2023-10-09T02:28:34.025Z,13.60
2023-10-09T02:31:14.800Z,13.50
2023-10-09T02:33:41.872Z,13.50
2023-10-09T02:36:14.442Z,13.50
2023-10-09T02:38:43.516Z,13.50
2023-10-09T02:41:10.672Z,13.60
2023-10-09T02:43:51.569Z,13.60
2023-10-09T02:46:20.672Z,13.50
2023-10-09T02:48:52.304Z,13.50
2023-10-09T02:51:43.223Z,13.50
2023-10-09T02:54:20.240Z,13.60
2023-10-09T02:56:55.595Z,13.60
2023-10-09T02:59:25.579Z,13.60
2023-10-09T03:01:54.094Z,13.60
2023-10-09T03:04:21.107Z,13.60
2023-10-09T03:06:51.225Z,13.60
2023-10-09T03:09:28.579Z,13.60
2023-10-09T03:12:04.845Z,13.60
2023-10-09T03:14:36.542Z,13.60
2023-10-09T03:17:04.145Z,13.70
2023-10-09T03:19:38.756Z,13.70
2023-10-09T03:22:12.019Z,13.70
2023-10-09T03:24:48.970Z,13.70
2023-10-09T03:27:18.976Z,13.70
2023-10-09T03:29:51.262Z,13.70
2023-10-09T03:32:20.517Z,13.70
2023-10-09T03:34:47.445Z,13.80
2023-10-09T03:37:34.253Z,13.80
2023-10-09T03:40:01.256Z,13.70
2023-10-09T03:42:28.144Z,13.80
2023-10-09T03:44:58.726Z,13.80
2023-10-09T03:47:28.657Z,13.80
2023-10-09T03:49:55.937Z,13.80
2023-10-09T03:52:27.056Z,13.90
2023-10-09T03:54:54.572Z,13.90
2023-10-09T03:57:21.745Z,13.90
2023-10-09T03:59:49.082Z,13.90
2023-10-09T04:02:17.361Z,13.90
2023-10-09T04:04:48.477Z,14.00
2023-10-09T04:07:18.882Z,14.00
2023-10-09T04:09:52.296Z,14.00
2023-10-09T04:12:22.401Z,14.00
2023-10-09T04:15:09.742Z,14.10
2023-10-09T04:17:37.472Z,14.10
2023-10-09T04:20:21.016Z,14.10
2023-10-09T04:23:01.507Z,14.10
2023-10-09T04:25:30.713Z,14.10
2023-10-09T04:28:11.655Z,14.20
2023-10-09T04:30:47.808Z,14.20
2023-10-09T04:33:42.042Z,14.20
2023-10-09T04:36:22.347Z,14.20
2023-10-09T04:39:05.404Z,14.20
2023-10-09T04:41:59.539Z,14.30
2023-10-09T04:44:37.270Z,14.30
2023-10-09T04:47:12.950Z,14.30
2023-10-09T04:50:02.945Z,14.30
2023-10-09T04:52:30.224Z,14.30
2023-10-09T04:55:10.077Z,14.30
2023-10-09T04:57:45.086Z,14.30
2023-10-09T05:00:26.095Z,14.30
2023-10-09T05:02:58.627Z,14.20
2023-10-09T05:05:39.772Z,14.20
2023-10-09T05:08:22.024Z,14.30
2023-10-09T05:11:01.206Z,14.30
2023-10-09T05:13:40.175Z,14.20
2023-10-09T05:16:08.983Z,14.30
2023-10-09T05:18:37.903Z,14.30
2023-10-09T05:21:14.371Z,14.20
2023-10-09T05:24:10.648Z,14.20
2023-10-09T05:26:50.442Z,14.20
2023-10-09T05:29:30.332Z,14.20
2023-10-09T05:32:06.291Z,14.20
2023-10-09T05:34:56.628Z,14.20
2023-10-09T05:37:26.407Z,14.20
2023-10-09T05:40:03.442Z,14.20
2023-10-09T05:42:43.483Z,14.30
2023-10-09T05:45:19.145Z,14.30
2023-10-09T05:48:09.962Z,14.20
2023-10-09T05:50:39.111Z,14.30
2023-10-09T05:53:11.152Z,14.30
2023-10-09T05:56:10.205Z,14.30
2023-10-09T05:58:55.660Z,14.30
2023-10-09T06:01:41.110Z,14.30
2023-10-09T06:04:17.601Z,14.30
2023-10-09T06:06:56.949Z,14.40
2023-10-09T06:09:44.070Z,14.40
2023-10-09T06:12:34.664Z,14.40
2023-10-09T06:15:34.758Z,14.50
2023-10-09T06:18:21.728Z,14.50
2023-10-09T06:21:09.972Z,14.50
2023-10-09T06:24:12.688Z,14.50
2023-10-09T06:26:42.583Z,14.50
2023-10-09T06:29:15.941Z,14.60
2023-10-09T06:32:17.376Z,14.60
2023-10-09T06:34:53.596Z,14.60
2023-10-09T06:37:27.062Z,14.70
2023-10-09T06:39:57.676Z,14.70
2023-10-09T06:42:34.695Z,14.70
2023-10-09T06:45:28.767Z,14.80
2023-10-09T06:48:11.321Z,14.80
2023-10-09T06:50:56.935Z,14.80
2023-10-09T06:53:29.547Z,14.90
2023-10-09T06:56:06.469Z,15.00
2023-10-09T06:58:55.766Z,15.00
2023-10-09T07:01:28.904Z,15.00
2023-10-09T07:04:17.584Z,15.10
2023-10-09T07:06:44.702Z,15.10
2023-10-09T07:09:11.893Z,15.10
2023-10-09T07:11:49.760Z,15.20
2023-10-09T07:14:31.186Z,15.20
2023-10-09T07:17:16.611Z,15.30
2023-10-09T07:19:44.951Z,15.30
2023-10-09T07:22:21.577Z,15.30
2023-10-09T07:25:00.231Z,15.40
2023-10-09T07:27:46.638Z,15.40
2023-10-09T07:30:31.300Z,15.50
2023-10-09T07:33:12.156Z,15.60
2023-10-09T07:35:44.725Z,15.60
2023-10-09T07:38:20.785Z,15.60
2023-10-09T07:41:21.046Z,15.60
2023-10-09T07:43:48.346Z,15.60
2023-10-09T07:46:33.533Z,15.60
2023-10-09T07:49:10.226Z,15.70
2023-10-09T07:51:38.450Z,15.70
2023-10-09T07:54:09.193Z,15.70
2023-10-09T07:56:43.124Z,15.70
2023-10-09T07:59:13.213Z,15.70
2023-10-09T08:01:53.636Z,15.80
2023-10-09T08:04:38.717Z,15.80
2023-10-09T08:08:02.359Z,15.80
2023-10-09T08:10:14.755Z,15.80
2023-10-09T08:12:45.618Z,15.90
2023-10-09T08:15:22.225Z,15.90
2023-10-09T08:17:54.980Z,15.90
2023-10-09T08:20:29.473Z,15.90
2023-10-09T08:22:57.581Z,15.90
2023-10-09T08:25:29.528Z,15.90
2023-10-09T08:28:20.734Z,15.90
2023-10-09T08:30:52.417Z,16.00
2023-10-09T08:36:09.029Z,16.00
2023-10-09T08:38:36.381Z,16.00
2023-10-09T08:41:18.342Z,16.00
2023-10-09T08:43:53.637Z,16.00
2023-10-09T08:46:22.793Z,16.00
2023-10-09T08:48:51.142Z,16.10
2023-10-09T08:51:21.090Z,16.10
2023-10-09T08:53:48.274Z,16.10
2023-10-09T08:56:23.735Z,16.10
2023-10-09T08:58:55.355Z,16.10
2023-10-09T09:01:23.186Z,16.10
2023-10-09T09:03:51.623Z,16.10
2023-10-09T09:06:21.888Z,16.10
2023-10-09T09:08:49.138Z,16.10
2023-10-09T09:11:24.219Z,16.00
2023-10-09T09:14:05.842Z,16.00
2023-10-09T09:16:38.584Z,16.00
2023-10-09T09:19:10.407Z,16.00
2023-10-09T09:21:42.225Z,15.90
2023-10-09T09:24:27.727Z,16.00
2023-10-09T09:27:00.913Z,16.00
2023-10-09T09:29:39.971Z,16.00
2023-10-09T09:32:19.476Z,16.00
2023-10-09T09:34:50.970Z,16.00
2023-10-09T09:37:35.770Z,15.90
2023-10-09T09:40:35.380Z,15.90
2023-10-09T09:43:07.585Z,15.90
2023-10-09T09:45:39.138Z,15.90
2023-10-09T09:48:09.608Z,16.00
2023-10-09T09:50:44.486Z,16.00
2023-10-09T09:53:18.181Z,16.10
2023-10-09T09:55:58.747Z,16.10
2023-10-09T09:58:33.744Z,16.20
2023-10-09T10:01:15.790Z,16.20
2023-10-09T10:03:50.210Z,16.20
2023-10-09T10:06:20.141Z,16.20
2023-10-09T10:08:52.609Z,16.30
2023-10-09T10:11:53.159Z,16.40
2023-10-09T10:14:32.799Z,16.40
2023-10-09T10:17:22.346Z,16.50
2023-10-09T10:20:01.706Z,16.50
2023-10-09T10:22:31.424Z,16.60
2023-10-09T10:24:59.049Z,16.60
2023-10-09T10:27:27.821Z,16.70
2023-10-09T10:30:13.473Z,16.80
2023-10-09T10:32:52.751Z,16.90
2023-10-09T10:35:39.150Z,17.00
2023-10-09T10:38:23.510Z,17.10
2023-10-09T10:40:58.357Z,17.20
2023-10-09T10:43:44.379Z,17.30
2023-10-09T10:46:29.893Z,17.30
2023-10-09T10:49:00.946Z,17.30
2023-10-09T10:51:39.151Z,17.30
2023-10-09T10:54:39.932Z,17.20
2023-10-09T10:57:20.874Z,17.30
2023-10-09T10:59:50.665Z,17.30
2023-10-09T11:02:29.398Z,17.30
2023-10-09T11:04:57.323Z,17.30
2023-10-09T11:07:29.158Z,17.40
2023-10-09T11:10:06.721Z,17.40
2023-10-09T11:12:43.115Z,17.40
2023-10-09T11:15:23.569Z,17.40
2023-10-09T11:18:06.247Z,17.40
2023-10-09T11:20:41.128Z,17.30
2023-10-09T11:23:13.862Z,17.20
2023-10-09T11:25:52.527Z,17.20
2023-10-09T11:28:31.375Z,17.20
2023-10-09T11:31:12.729Z,17.10
2023-10-09T11:33:50.278Z,17.00
2023-10-09T11:36:18.145Z,17.00
2023-10-09T11:38:46.969Z,17.00
2023-10-09T11:41:25.623Z,16.90
2023-10-09T11:43:53.910Z,16.90
2023-10-09T11:46:42.097Z,16.90
2023-10-09T11:49:22.569Z,17.00
2023-10-09T11:52:08.647Z,16.90
2023-10-09T11:54:36.877Z,17.00
2023-10-09T11:57:04.581Z,17.00
2023-10-09T11:59:38.805Z,17.00
2023-10-09T12:02:06.321Z,17.00
2023-10-09T12:04:33.548Z,17.00
2023-10-09T12:07:10.280Z,17.00
2023-10-09T12:09:38.618Z,17.10
2023-10-09T12:12:08.344Z,17.10
2023-10-09T12:14:38.780Z,17.10
2023-10-09T12:17:07.508Z,17.20
2023-10-09T12:19:38.733Z,17.30
2023-10-09T12:22:17.437Z,17.40
2023-10-09T12:24:44.753Z,17.50
2023-10-09T12:27:12.575Z,17.60
2023-10-09T12:29:47.260Z,17.70
2023-10-09T12:32:20.667Z,17.70
2023-10-09T12:34:52.334Z,17.70
2023-10-09T12:37:22.050Z,17.60
2023-10-09T12:39:49.514Z,17.60
2023-10-09T12:42:18.239Z,17.60
2023-10-09T12:44:45.597Z,17.60
2023-10-09T12:47:12.644Z,17.60
2023-10-09T12:49:42.706Z,17.60
2023-10-09T12:52:17.892Z,17.60
2023-10-09T12:54:47.858Z,17.70
2023-10-09T12:57:14.955Z,18.00
2023-10-09T12:59:46.717Z,18.30
2023-10-09T13:02:29.753Z,18.60
2023-10-09T13:04:58.574Z,18.90
2023-10-09T13:07:26.833Z,19.10
2023-10-09T13:10:14.986Z,19.30
2023-10-09T13:12:44.557Z,19.30
2023-10-09T13:15:12.434Z,19.30
2023-10-09T13:17:39.856Z,19.20
2023-10-09T13:20:17.221Z,19.10
2023-10-09T13:22:44.597Z,18.90
2023-10-09T13:25:34.566Z,18.80
2023-10-09T13:28:04.710Z,18.70
2023-10-09T13:30:41.321Z,18.60
2023-10-09T13:33:08.691Z,18.60
2023-10-09T13:35:49.368Z,18.40
2023-10-09T13:38:16.314Z,18.30
2023-10-09T13:40:43.403Z,18.20
2023-10-09T13:43:17.708Z,18.20
2023-10-09T13:45:50.919Z,18.10
2023-10-09T13:48:19.132Z,18.10
2023-10-09T13:50:46.179Z,18.10
2023-10-09T13:53:15.462Z,18.00
2023-10-09T13:55:45.245Z,18.00
2023-10-09T13:58:22.199Z,18.00
2023-10-09T14:00:51.141Z,18.20
2023-10-09T14:03:24.884Z,18.40
2023-10-09T14:06:11.436Z,18.60
2023-10-09T14:08:43.399Z,18.80
2023-10-09T14:11:14.509Z,18.80
2023-10-09T14:13:42.109Z,18.70
2023-10-09T14:16:24.976Z,18.70
2023-10-09T14:18:57.988Z,18.60
2023-10-09T14:21:38.777Z,18.50
2023-10-09T14:24:18.714Z,18.60
2023-10-09T14:26:48.060Z,18.60
2023-10-09T14:29:18.128Z,18.60
2023-10-09T14:31:50.430Z,18.50
2023-10-09T14:34:17.576Z,18.50
2023-10-09T14:36:45.142Z,18.40
2023-10-09T14:39:19.941Z,18.40
2023-10-09T14:41:46.981Z,18.40
2023-10-09T14:44:17.726Z,18.40
2023-10-09T14:46:45.043Z,18.50
2023-10-09T14:49:15.230Z,18.40
2023-10-09T14:51:45.449Z,18.40
2023-10-09T14:54:16.710Z,18.30
2023-10-09T14:56:43.634Z,18.30
2023-10-09T14:59:12.403Z,18.20
2023-10-09T15:01:39.636Z,18.20
2023-10-09T15:04:08.484Z,18.10
2023-10-09T15:06:39.269Z,18.10
2023-10-09T15:09:10.380Z,18.00
2023-10-09T15:11:41.539Z,18.00
2023-10-09T15:14:09.807Z,17.90
2023-10-09T15:16:40.766Z,17.90
2023-10-09T15:19:10.935Z,17.80
2023-10-09T15:21:45.125Z,17.70
2023-10-09T15:24:22.353Z,17.70
2023-10-09T15:26:53.585Z,17.60
2023-10-09T15:29:29.039Z,17.50
2023-10-09T15:32:06.430Z,17.50
2023-10-09T15:34:37.304Z,17.40
2023-10-09T15:37:10.704Z,17.40
2023-10-09T15:39:38.168Z,17.30
2023-10-09T15:42:08.099Z,17.30
2023-10-09T15:44:38.365Z,17.30
2023-10-09T15:47:09.954Z,17.20
2023-10-09T15:49:45.173Z,17.20
2023-10-09T15:52:15.279Z,17.10
2023-10-09T15:54:44.272Z,17.10
2023-10-09T15:57:14.050Z,17.00
2023-10-09T15:59:41.460Z,17.00
2023-10-09T16:02:08.818Z,17.00
2023-10-09T16:04:35.897Z,16.90
2023-10-09T16:07:06.621Z,16.90
2023-10-09T16:09:38.897Z,16.90
2023-10-09T16:12:10.509Z,16.80
2023-10-09T16:14:37.690Z,16.80
2023-10-09T16:17:07.745Z,16.80
2023-10-09T16:19:38.507Z,16.80
2023-10-09T16:22:05.807Z,16.70
2023-10-09T16:24:38.905Z,16.70
2023-10-09T16:27:09.285Z,16.70
2023-10-09T16:29:36.497Z,16.70
2023-10-09T16:32:03.724Z,16.70
2023-10-09T16:34:30.919Z,16.70
2023-10-09T16:36:57.900Z,16.70
2023-10-09T16:39:24.951Z,16.60
2023-10-09T16:41:52.028Z,16.60
2023-10-09T16:44:19.002Z,16.60
2023-10-09T16:46:46.797Z,16.60
2023-10-09T16:51:47.739Z,16.60
2023-10-09T16:54:17.426Z,16.60
2023-10-09T16:56:44.833Z,16.60
2023-10-09T16:59:15.424Z,16.60
2023-10-09T17:01:43.192Z,16.50
2023-10-09T17:04:13.432Z,16.50
2023-10-09T17:06:40.679Z,16.50
2023-10-09T17:09:08.463Z,16.50
2023-10-09T17:11:37.798Z,16.50
2023-10-09T17:14:07.601Z,16.40
2023-10-09T17:16:35.572Z,16.40
2023-10-09T17:19:03.123Z,16.40
2023-10-09T17:21:37.201Z,16.40
2023-10-09T17:24:05.732Z,16.40
2023-10-09T17:26:33.201Z,16.30
2023-10-09T17:29:01.266Z,16.40
2023-10-09T17:31:28.478Z,16.30
2023-10-09T17:33:55.548Z,16.30
2023-10-09T17:36:23.843Z,16.30
2023-10-09T17:38:51.303Z,16.30
2023-10-09T17:41:25.179Z,16.30
2023-10-09T17:43:52.314Z,16.20
2023-10-09T17:46:19.775Z,16.30
2023-10-09T17:48:47.290Z,16.20
2023-10-09T17:51:15.968Z,16.20
2023-10-09T17:53:44.277Z,16.20
2023-10-09T17:56:11.709Z,16.20
2023-10-09T17:58:39.314Z,16.20
2023-10-09T18:01:07.578Z,16.20
2023-10-09T18:03:35.500Z,16.20
2023-10-09T18:06:04.043Z,16.20
2023-10-09T18:08:31.177Z,16.10
2023-10-09T18:11:01.285Z,16.10
2023-10-09T18:13:28.682Z,16.10
2023-10-09T18:16:09.848Z,16.10
2023-10-09T18:18:41.112Z,16.00
2023-10-09T18:21:09.746Z,16.00
2023-10-09T18:23:37.987Z,16.00
2023-10-09T18:26:07.188Z,16.00
2023-10-09T18:28:37.909Z,16.00
2023-10-09T18:31:14.877Z,15.90
2023-10-09T18:33:44.817Z,15.90
2023-10-09T18:36:12.638Z,15.90
2023-10-09T18:38:40.221Z,15.90
2023-10-09T18:41:12.161Z,15.90
2023-10-09T18:43:43.285Z,15.90
2023-10-09T18:46:12.830Z,15.80
2023-10-09T18:48:40.240Z,15.80
2023-10-09T18:51:08.876Z,15.80
2023-10-09T18:53:35.962Z,15.80
2023-10-09T18:56:03.260Z,15.80
2023-10-09T18:58:30.311Z,15.80
2023-10-09T19:01:03.033Z,15.80
2023-10-09T19:03:31.140Z,15.70
2023-10-09T19:05:58.293Z,15.80
2023-10-09T19:08:25.448Z,15.70
2023-10-09T19:11:01.549Z,15.70
2023-10-09T19:13:30.769Z,15.70
2023-10-09T19:15:57.854Z,15.70
2023-10-09T19:18:25.877Z,15.70
2023-10-09T19:20:54.133Z,15.70
2023-10-09T19:23:21.347Z,15.70
2023-10-09T19:25:48.575Z,15.70
2023-10-09T19:28:16.291Z,15.70
2023-10-09T19:30:45.477Z,15.70
2023-10-09T19:33:12.833Z,15.70
2023-10-09T19:35:41.752Z,15.70
2023-10-09T19:38:09.440Z,15.70
2023-10-09T19:40:36.653Z,15.60
2023-10-09T19:43:05.788Z,15.60
2023-10-09T19:45:32.671Z,15.60
2023-10-09T19:47:59.617Z,15.60
2023-10-09T19:50:26.818Z,15.60
2023-10-09T19:52:53.834Z,15.60
2023-10-09T19:55:23.561Z,15.60
2023-10-09T19:57:52.513Z,15.60
2023-10-09T20:00:23.152Z,15.60
2023-10-09T20:02:54.838Z,15.60
2023-10-09T20:05:23.903Z,15.60
2023-10-09T20:07:51.054Z,15.60
2023-10-09T20:10:19.365Z,15.60
2023-10-09T20:12:46.927Z,15.50
2023-10-09T20:15:14.822Z,15.50
2023-10-09T20:17:45.193Z,15.50
2023-10-09T20:20:13.292Z,15.50
2023-10-09T20:22:40.863Z,15.50
2023-10-09T20:25:14.366Z,15.50
2023-10-09T20:27:44.315Z,15.50
2023-10-09T20:30:12.463Z,15.50
2023-10-09T20:32:41.251Z,15.50
2023-10-09T20:35:13.102Z,15.50
2023-10-09T20:37:42.055Z,15.50
2023-10-09T20:40:22.168Z,15.50
2023-10-09T20:42:50.540Z,15.40
2023-10-09T20:45:18.366Z,15.40
2023-10-09T20:47:55.961Z,15.50
2023-10-09T20:50:26.611Z,15.40
2023-10-09T20:52:54.932Z,15.40
2023-10-09T20:55:24.441Z,15.40
2023-10-09T20:57:58.376Z,15.40
2023-10-09T21:00:27.802Z,15.40
2023-10-09T21:02:56.412Z,15.40
2023-10-09T21:05:27.359Z,15.40
2023-10-09T21:07:55.664Z,15.40
2023-10-09T21:10:23.171Z,15.40
2023-10-09T21:12:52.410Z,15.40
2023-10-09T21:15:21.977Z,15.40
2023-10-09T21:17:53.446Z,15.40
2023-10-09T21:20:21.124Z,15.40
2023-10-09T21:22:55.643Z,15.40
2023-10-09T21:25:26.734Z,15.30
2023-10-09T21:27:57.796Z,15.30
2023-10-09T21:30:25.762Z,15.30
2023-10-09T21:32:55.315Z,15.30
2023-10-09T21:35:28.578Z,15.40
2023-10-09T21:37:59.746Z,15.30
2023-10-09T21:40:31.606Z,15.30
2023-10-09T21:43:00.378Z,15.30
2023-10-09T21:45:28.382Z,15.30
2023-10-09T21:47:58.926Z,15.30
2023-10-09T21:50:27.546Z,15.30
2023-10-09T21:52:59.670Z,15.30
2023-10-09T21:55:29.380Z,15.30
2023-10-09T21:57:56.461Z,15.30
2023-10-09T22:00:32.571Z,15.30
2023-10-09T22:03:11.681Z,15.30
2023-10-09T22:05:45.632Z,15.30
2023-10-09T22:08:14.660Z,15.30
2023-10-09T22:10:44.463Z,15.30
2023-10-09T22:13:14.128Z,15.30
2023-10-09T22:15:44.419Z,15.30
2023-10-09T22:18:21.434Z,15.30
2023-10-09T22:20:54.927Z,15.30
2023-10-09T22:23:32.345Z,15.30
2023-10-09T22:26:02.846Z,15.30
2023-10-09T22:28:31.187Z,15.30
2023-10-09T22:31:05.469Z,15.30
2023-10-09T22:33:50.876Z,15.30
2023-10-09T22:36:46.548Z,15.30
2023-10-09T22:39:22.833Z,15.30
2023-10-09T22:41:55.406Z,15.30
2023-10-09T22:44:23.213Z,15.30
2023-10-09T22:46:52.842Z,15.30
2023-10-09T22:49:20.270Z,15.20
2023-10-09T22:51:51.574Z,15.20
2023-10-09T22:54:24.347Z,15.20
2023-10-09T22:56:53.270Z,15.20
2023-10-09T22:59:27.756Z,15.20
2023-10-09T23:02:01.246Z,15.20
2023-10-09T23:04:40.424Z,15.20
2023-10-09T23:07:15.846Z,15.20
2023-10-09T23:09:54.893Z,15.20
2023-10-09T23:12:26.974Z,15.20
2023-10-09T23:14:56.385Z,15.20
2023-10-09T23:17:43.797Z,15.20
2023-10-09T23:20:20.715Z,15.20
2023-10-09T23:22:50.490Z,15.20
2023-10-09T23:25:35.981Z,15.20
2023-10-09T23:28:37.817Z,15.20
2023-10-09T23:31:23.460Z,15.20
2023-10-09T23:33:52.665Z,15.20
2023-10-09T23:36:29.241Z,15.20
2023-10-09T23:39:35.214Z,15.20
2023-10-09T23:42:03.356Z,15.20
2023-10-09T23:44:35.469Z,15.20
2023-10-09T23:47:10.013Z,15.20
2023-10-09T23:49:39.772Z,15.20
2023-10-09T23:52:07.980Z,15.20
2023-10-09T23:54:34.846Z,15.20
2023-10-09T23:57:03.393Z,15.20
2023-10-09T23:59:50.573Z,15.20
